TimeEDT,TemperatureF,Dew PointF,Humidity,Sea Level PressureIn,VisibilityMPH,Wind Direction,Wind SpeedMPH,Gust SpeedMPH,PrecipitationIn,Events,Conditions,WindDirDegrees,DateUTC
12:15 AM,42.8,41.0,93,30.26,10.0,NNE,3.5,-,N/A,,Clear,30,2013-09-29 04:15:00
12:35 AM,44.6,42.8,93,30.26,10.0,Calm,Calm,-,N/A,,Clear,0,2013-09-29 04:35:00
12:55 AM,44.6,42.8,93,30.26,4.0,Calm,Calm,-,N/A,,Clear,0,2013-09-29 04:55:00
1:15 AM,44.6,42.8,93,30.26,9.0,NE,4.6,-,N/A,,Clear,50,2013-09-29 05:15:00
1:35 AM,44.6,44.6,100,30.26,10.0,Calm,Calm,-,N/A,,Clear,0,2013-09-29 05:35:00
1:55 AM,41.0,39.2,93,30.25,10.0,Calm,Calm,-,N/A,,Clear,0,2013-09-29 05:55:00
2:15 AM,42.8,41.0,93,30.24,10.0,Calm,Calm,-,N/A,,Clear,0,2013-09-29 06:15:00
2:35 AM,41.0,41.0,100,30.24,10.0,Calm,Calm,-,N/A,,Clear,0,2013-09-29 06:35:00
2:55 AM,42.8,41.0,93,30.23,10.0,NNE,3.5,-,N/A,,Clear,20,2013-09-29 06:55:00
3:15 AM,39.2,37.4,93,30.23,10.0,Calm,Calm,-,N/A,,Clear,0,2013-09-29 07:15:00
3:35 AM,41.0,39.2,93,30.22,5.0,North,3.5,-,N/A,,Clear,10,2013-09-29 07:35:00
3:55 AM,41.0,39.2,93,30.23,2.0,Calm,Calm,-,N/A,,Clear,0,2013-09-29 07:55:00
4:15 AM,41.0,41.0,100,30.22,10.0,North,3.5,-,N/A,,Clear,10,2013-09-29 08:15:00
4:35 AM,39.2,39.2,100,30.22,10.0,NE,3.5,-,N/A,,Clear,40,2013-09-29 08:35:00
4:55 AM,39.2,39.2,100,30.22,9.0,Calm,Calm,-,N/A,,Clear,0,2013-09-29 08:55:00
5:15 AM,41.0,39.2,93,30.22,10.0,Calm,Calm,-,N/A,,Clear,0,2013-09-29 09:15:00
5:35 AM,39.2,39.2,100,30.22,10.0,Calm,Calm,-,N/A,,Partly Cloudy,0,2013-09-29 09:35:00
5:55 AM,41.0,39.2,93,30.22,10.0,Calm,Calm,-,N/A,,Scattered Clouds,0,2013-09-29 09:55:00
6:15 AM,41.0,41.0,100,30.22,10.0,NNE,3.5,-,N/A,,Partly Cloudy,30,2013-09-29 10:15:00
6:35 AM,41.0,39.2,93,30.22,7.0,ENE,3.5,-,N/A,,Clear,60,2013-09-29 10:35:00
6:55 AM,41.0,41.0,100,30.22,0.5,ENE,3.5,-,N/A,Fog,Fog,70,2013-09-29 10:55:00
7:15 AM,41.0,39.2,93,30.22,10.0,NNE,3.5,-,N/A,,Clear,30,2013-09-29 11:15:00
7:35 AM,48.2,46.4,93,30.22,10.0,NE,5.8,-,N/A,,Clear,50,2013-09-29 11:35:00
7:55 AM,50.0,48.2,94,30.23,10.0,East,4.6,-,N/A,,Partly Cloudy,80,2013-09-29 11:55:00
8:15 AM,51.8,50.0,94,30.23,9.0,East,4.6,-,N/A,,Partly Cloudy,80,2013-09-29 12:15:00
8:35 AM,53.6,51.8,94,30.23,10.0,East,5.8,-,N/A,,Scattered Clouds,100,2013-09-29 12:35:00
8:55 AM,55.4,50.0,82,30.23,10.0,East,5.8,-,N/A,,Mostly Cloudy,80,2013-09-29 12:55:00
9:15 AM,55.4,51.8,88,30.24,10.0,ENE,5.8,-,N/A,,Overcast,60,2013-09-29 13:15:00
9:35 AM,57.2,50.0,77,30.24,10.0,East,10.4,-,N/A,,Mostly Cloudy,100,2013-09-29 13:35:00
9:55 AM,57.2,50.0,77,30.23,10.0,ESE,6.9,-,N/A,,Clear,110,2013-09-29 13:55:00
10:15 AM,59.0,50.0,72,30.23,10.0,NE,4.6,-,N/A,,Scattered Clouds,50,2013-09-29 14:15:00
10:35 AM,59.0,50.0,72,30.23,10.0,East,5.8,-,N/A,,Mostly Cloudy,90,2013-09-29 14:35:00
10:55 AM,60.8,48.2,63,30.22,10.0,SE,3.5,-,N/A,,Partly Cloudy,130,2013-09-29 14:55:00
11:15 AM,60.8,50.0,68,30.21,10.0,Calm,Calm,-,N/A,,Clear,0,2013-09-29 15:15:00
11:35 AM,62.6,48.2,59,30.20,10.0,ESE,4.6,-,N/A,,Clear,120,2013-09-29 15:35:00
11:55 AM,62.6,48.2,59,30.20,10.0,East,4.6,-,N/A,,Clear,90,2013-09-29 15:55:00
12:15 PM,64.4,50.0,59,30.19,10.0,East,4.6,-,N/A,,Partly Cloudy,100,2013-09-29 16:15:00
12:35 PM,64.4,50.0,59,30.19,10.0,ESE,6.9,-,N/A,,Partly Cloudy,120,2013-09-29 16:35:00
12:55 PM,64.4,50.0,59,30.19,10.0,East,8.1,-,N/A,Rain,Light Rain,100,2013-09-29 16:55:00
1:15 PM,64.4,51.8,64,30.18,10.0,NE,8.1,-,N/A,Rain,Light Rain,50,2013-09-29 17:15:00
1:35 PM,64.4,50.0,59,30.18,10.0,NE,8.1,-,N/A,Rain,Light Rain,50,2013-09-29 17:35:00
1:55 PM,64.4,51.8,64,30.17,10.0,NE,9.2,-,N/A,Rain,Light Rain,40,2013-09-29 17:55:00
2:15 PM,64.4,51.8,64,30.16,10.0,NNE,9.2,-,N/A,,Scattered Clouds,30,2013-09-29 18:15:00
2:35 PM,64.4,51.8,64,30.16,10.0,NNE,9.2,-,N/A,,Overcast,30,2013-09-29 18:35:00
2:55 PM,64.4,51.8,64,30.16,10.0,NE,9.2,-,N/A,,Mostly Cloudy,50,2013-09-29 18:55:00
3:15 PM,62.6,51.8,68,30.15,10.0,East,8.1,-,N/A,,Overcast,80,2013-09-29 19:15:00
3:35 PM,62.6,51.8,68,30.15,10.0,NE,9.2,-,N/A,,Overcast,50,2013-09-29 19:35:00
3:55 PM,62.6,53.6,72,30.15,10.0,ENE,9.2,-,N/A,,Overcast,60,2013-09-29 19:55:00
4:15 PM,62.6,53.6,72,30.15,10.0,ENE,8.1,-,N/A,,Overcast,60,2013-09-29 20:15:00
4:35 PM,62.6,51.8,68,30.15,10.0,NE,9.2,-,N/A,,Overcast,50,2013-09-29 20:35:00
4:55 PM,60.8,51.8,72,30.15,10.0,ENE,9.2,-,N/A,,Overcast,60,2013-09-29 20:55:00
5:15 PM,62.6,53.6,72,30.14,10.0,NE,8.1,-,N/A,,Overcast,50,2013-09-29 21:15:00
5:35 PM,59.0,53.6,82,30.14,10.0,NE,9.2,-,N/A,,Scattered Clouds,50,2013-09-29 21:35:00
5:55 PM,59.0,53.6,82,30.14,10.0,ENE,10.4,-,N/A,,Scattered Clouds,60,2013-09-29 21:55:00
6:15 PM,57.2,53.6,88,30.14,10.0,NE,6.9,-,N/A,,Mostly Cloudy,40,2013-09-29 22:15:00
6:35 PM,57.2,53.6,88,30.14,10.0,NE,6.9,-,N/A,,Overcast,40,2013-09-29 22:35:00
6:55 PM,57.2,53.6,88,30.14,10.0,NE,6.9,-,N/A,,Overcast,50,2013-09-29 22:55:00
7:15 PM,57.2,53.6,88,30.14,10.0,NE,6.9,-,N/A,,Overcast,50,2013-09-29 23:15:00
7:35 PM,57.2,55.4,94,30.15,10.0,ENE,6.9,-,N/A,,Overcast,60,2013-09-29 23:35:00
7:55 PM,57.2,55.4,94,30.15,10.0,East,6.9,-,N/A,,Overcast,80,2013-09-29 23:55:00
8:15 PM,57.2,55.4,94,30.14,10.0,East,8.1,-,N/A,,Overcast,80,2013-09-30 00:15:00
8:35 PM,57.2,55.4,94,30.13,10.0,East,9.2,-,N/A,,Overcast,80,2013-09-30 00:35:00
8:55 PM,55.4,53.6,94,30.13,10.0,East,8.1,-,N/A,,Mostly Cloudy,100,2013-09-30 00:55:00
9:15 PM,57.2,55.4,94,30.12,10.0,East,6.9,-,N/A,,Mostly Cloudy,80,2013-09-30 01:15:00
9:35 PM,57.2,55.4,94,30.12,10.0,East,8.1,-,N/A,,Overcast,80,2013-09-30 01:35:00
9:55 PM,57.2,55.4,94,30.11,10.0,East,8.1,-,N/A,,Overcast,80,2013-09-30 01:55:00
10:15 PM,57.2,55.4,94,30.11,10.0,ENE,6.9,-,N/A,,Overcast,70,2013-09-30 02:15:00
10:35 PM,57.2,55.4,94,30.12,10.0,ENE,6.9,-,N/A,,Overcast,70,2013-09-30 02:35:00
10:55 PM,57.2,55.4,94,30.12,10.0,ENE,4.6,-,N/A,,Overcast,60,2013-09-30 02:55:00
11:15 PM,59.0,55.4,88,30.12,10.0,ENE,4.6,-,N/A,,Overcast,70,2013-09-30 03:15:00
11:35 PM,57.2,55.4,94,30.11,10.0,ENE,6.9,-,N/A,,Overcast,60,2013-09-30 03:35:00
11:55 PM,57.2,55.4,94,30.11,10.0,ENE,6.9,-,N/A,,Overcast,60,2013-09-30 03:55:00